createdAt,value
2022-08-14T00:00:37.331Z,9.77
2022-08-14T00:02:58.873Z,9.70
2022-08-14T00:05:22.201Z,9.80
2022-08-14T00:07:44.543Z,9.13
2022-08-14T00:10:49.962Z,10.57
2022-08-14T00:12:56.815Z,9.30
2022-08-14T00:15:22.926Z,9.77
2022-08-14T00:17:48.365Z,9.50
2022-08-14T00:20:15.599Z,9.20
2022-08-14T00:22:57.490Z,9.85
2022-08-14T00:25:19.920Z,10.50
2022-08-14T00:27:42.450Z,10.00
2022-08-14T00:30:07.932Z,9.77
2022-08-14T00:32:50.249Z,10.27
2022-08-14T00:35:13.827Z,10.38
2022-08-14T00:37:41.966Z,10.25
2022-08-14T00:40:18.829Z,10.90
2022-08-14T00:42:55.627Z,10.68
2022-08-14T00:45:18.638Z,11.07
2022-08-14T00:47:46.836Z,10.65
2022-08-14T00:50:17.533Z,9.93
2022-08-14T00:52:40.211Z,10.70
2022-08-14T00:55:03.081Z,10.30
2022-08-14T00:57:27.972Z,10.30
2022-08-14T00:59:50.800Z,10.13
2022-08-14T01:02:15.817Z,11.55
2022-08-14T01:04:53.835Z,10.60
2022-08-14T01:07:24.957Z,10.68
2022-08-14T01:09:50.791Z,10.68
2022-08-14T01:12:13.187Z,10.57
2022-08-14T01:14:55.247Z,11.52
2022-08-14T01:17:19.791Z,9.95
2022-08-14T01:20:02.374Z,10.60
2022-08-14T01:22:27.021Z,10.35
2022-08-14T01:24:51.567Z,10.57
2022-08-14T01:27:22.375Z,11.77
2022-08-14T01:30:03.581Z,11.95
2022-08-14T01:32:26.231Z,11.77
2022-08-14T01:35:19.420Z,11.85
2022-08-14T01:37:38.195Z,13.43
2022-08-14T01:40:06.487Z,11.63
2022-08-14T01:42:36.054Z,11.82
2022-08-14T01:44:58.595Z,11.60
2022-08-14T01:47:22.224Z,12.05
2022-08-14T01:49:46.542Z,10.60
2022-08-14T01:52:34.527Z,11.63
2022-08-14T01:55:06.788Z,10.90
2022-08-14T01:57:49.584Z,11.02
2022-08-14T02:00:16.696Z,10.65
2022-08-14T02:02:39.769Z,11.25
2022-08-14T02:05:02.759Z,11.55
2022-08-14T02:07:44.941Z,11.50
2022-08-14T02:10:07.939Z,11.68
2022-08-14T02:12:34.904Z,11.23
2022-08-14T02:15:00.171Z,12.35
2022-08-14T02:17:23.653Z,11.60
2022-08-14T02:19:45.085Z,12.48
2022-08-14T02:22:08.856Z,12.05
2022-08-14T02:24:39.408Z,11.35
2022-08-14T02:28:26.018Z,12.10
2022-08-14T02:29:59.439Z,11.77
2022-08-14T02:32:36.333Z,12.75
2022-08-14T02:35:00.719Z,11.52
2022-08-14T02:37:22.316Z,11.70
2022-08-14T02:39:45.644Z,11.82
2022-08-14T02:42:12.987Z,12.13
2022-08-14T02:44:39.853Z,12.10
2022-08-14T02:47:02.957Z,12.15
2022-08-14T02:49:33.978Z,11.88
2022-08-14T02:51:57.263Z,12.65
2022-08-14T02:54:19.858Z,12.55
2022-08-14T02:57:15.809Z,13.32
2022-08-14T02:59:25.600Z,12.13
2022-08-14T03:01:54.798Z,13.15
2022-08-14T03:04:17.750Z,12.97
2022-08-14T03:06:57.974Z,13.10
2022-08-14T03:09:42.389Z,13.07
2022-08-14T03:12:09.027Z,13.20
2022-08-14T03:14:30.776Z,13.67
2022-08-14T03:16:53.629Z,14.90
2022-08-14T03:19:15.123Z,14.90
2022-08-14T03:21:41.182Z,14.37
2022-08-14T03:24:03.820Z,14.00
2022-08-14T03:26:29.695Z,12.83
2022-08-14T03:28:52.638Z,13.67
2022-08-14T03:31:15.122Z,13.70
2022-08-14T03:33:40.258Z,12.77
2022-08-14T03:37:28.551Z,12.63
2022-08-14T03:39:14.228Z,12.90
2022-08-14T03:41:28.393Z,12.53
2022-08-14T03:44:01.589Z,12.20
2022-08-14T03:46:54.472Z,12.57
2022-08-14T03:49:24.167Z,13.93
2022-08-14T03:51:50.496Z,13.80
2022-08-14T03:54:20.431Z,13.80
2022-08-14T03:56:45.135Z,12.77
2022-08-14T03:59:18.043Z,12.03
2022-08-14T04:01:45.811Z,13.43
2022-08-14T04:04:19.713Z,13.93
2022-08-14T04:06:47.744Z,14.67
2022-08-14T04:09:10.596Z,14.87
2022-08-14T04:11:32.067Z,13.70
2022-08-14T04:13:54.366Z,14.30
2022-08-14T04:16:20.571Z,13.57
2022-08-14T04:18:44.803Z,13.80
2022-08-14T04:21:07.389Z,15.20
2022-08-14T04:23:33.472Z,15.43
2022-08-14T04:25:55.218Z,16.13
2022-08-14T04:29:05.258Z,13.97
2022-08-14T04:30:59.523Z,14.63
2022-08-14T04:33:24.513Z,14.70
2022-08-14T04:35:56.511Z,14.07
2022-08-14T04:38:39.966Z,12.80
2022-08-14T04:41:20.471Z,13.87
2022-08-14T04:43:43.338Z,13.37
2022-08-14T04:46:06.889Z,13.60
2022-08-14T04:48:38.855Z,14.23
2022-08-14T04:51:06.935Z,14.27
2022-08-14T04:53:35.394Z,14.37
2022-08-14T04:55:57.720Z,14.10
2022-08-14T04:58:21.536Z,14.38
2022-08-14T05:00:56.235Z,14.35
2022-08-14T05:03:21.262Z,15.18
2022-08-14T05:05:43.980Z,14.77
2022-08-14T05:08:31.779Z,15.68
2022-08-14T05:10:56.750Z,13.40
2022-08-14T05:13:20.237Z,13.53
2022-08-14T05:15:47.938Z,14.20
2022-08-14T05:18:17.222Z,15.00
2022-08-14T05:21:58.099Z,14.10
2022-08-14T05:23:30.192Z,14.03
2022-08-14T05:25:56.085Z,13.98
2022-08-14T05:28:21.070Z,15.75
2022-08-14T05:30:43.734Z,14.40
2022-08-14T05:33:06.373Z,15.07
2022-08-14T05:35:28.961Z,16.33
2022-08-14T05:37:50.392Z,15.95
2022-08-14T05:40:12.140Z,15.68
2022-08-14T05:42:34.568Z,15.75
2022-08-14T05:44:56.264Z,16.52
2022-08-14T05:47:17.761Z,17.90
2022-08-14T05:49:40.835Z,18.13
2022-08-14T05:52:02.862Z,16.38
2022-08-14T05:54:26.586Z,18.55
2022-08-14T05:56:48.729Z,18.25
2022-08-14T05:59:13.313Z,18.20
2022-08-14T06:01:38.502Z,17.73
2022-08-14T06:04:00.335Z,16.88
2022-08-14T06:06:21.823Z,16.50
2022-08-14T06:08:43.353Z,16.50
2022-08-14T06:11:07.760Z,16.50
2022-08-14T06:13:31.472Z,15.65
2022-08-14T06:15:53.389Z,16.42
2022-08-14T06:18:17.513Z,17.83
2022-08-14T06:20:40.005Z,18.20
2022-08-14T06:23:02.541Z,17.60
2022-08-14T06:25:25.017Z,17.35
2022-08-14T06:27:48.833Z,15.90
2022-08-14T06:30:14.971Z,16.10
2022-08-14T06:32:39.319Z,17.40
2022-08-14T06:35:13.239Z,16.30
2022-08-14T06:37:51.904Z,16.73
2022-08-14T06:40:26.265Z,17.80
2022-08-14T06:42:49.945Z,15.98
2022-08-14T06:45:12.349Z,16.83
2022-08-14T06:47:38.679Z,17.23
2022-08-14T06:50:07.625Z,16.27
2022-08-14T06:52:30.082Z,15.40
2022-08-14T06:54:52.012Z,16.58
2022-08-14T06:57:13.942Z,15.60
2022-08-14T06:59:35.637Z,15.57
2022-08-14T07:02:17.856Z,15.82
2022-08-14T07:04:59.123Z,15.40
2022-08-14T07:07:20.595Z,14.07
2022-08-14T07:09:50.740Z,14.65
2022-08-14T07:12:54.742Z,17.30
2022-08-14T07:15:00.993Z,13.50
2022-08-14T07:17:22.777Z,13.45
2022-08-14T07:19:44.483Z,13.93
2022-08-14T07:22:17.467Z,13.73
2022-08-14T07:24:42.027Z,13.02
2022-08-14T07:27:03.609Z,10.80
2022-08-14T07:29:26.503Z,10.80
2022-08-14T07:31:50.334Z,10.82
2022-08-14T07:34:36.646Z,10.27
2022-08-14T07:37:00.877Z,9.35
2022-08-14T07:39:27.468Z,8.95
2022-08-14T07:41:49.644Z,8.32
2022-08-14T07:44:32.196Z,8.32
2022-08-14T07:46:52.953Z,8.15
2022-08-14T07:49:17.824Z,7.50
2022-08-14T07:51:40.442Z,8.20
2022-08-14T07:54:02.013Z,8.15
2022-08-14T07:56:46.780Z,7.70
2022-08-14T07:59:09.065Z,7.80
2022-08-14T08:01:31.734Z,7.50
2022-08-14T08:03:59.421Z,7.30
2022-08-14T08:06:22.373Z,6.80
2022-08-14T08:09:01.341Z,6.07
2022-08-14T08:11:27.506Z,6.30
2022-08-14T08:13:59.522Z,6.10
2022-08-14T08:16:24.407Z,5.68
2022-08-14T08:18:45.896Z,6.20
2022-08-14T08:21:08.432Z,6.20
2022-08-14T08:23:39.992Z,5.80
2022-08-14T08:26:01.836Z,6.00
2022-08-14T08:28:26.639Z,5.85
2022-08-14T08:30:52.827Z,6.32
2022-08-14T08:33:17.763Z,5.95
2022-08-14T08:35:47.063Z,5.75
2022-08-14T08:39:17.791Z,5.63
2022-08-14T08:41:00.103Z,5.80
2022-08-14T08:43:30.169Z,5.05
2022-08-14T08:46:04.027Z,4.80
2022-08-14T08:48:37.097Z,5.50
2022-08-14T08:51:03.640Z,5.22
2022-08-14T08:53:34.233Z,5.45
2022-08-14T08:55:56.845Z,5.22
2022-08-14T08:58:24.789Z,4.90
2022-08-14T09:00:50.083Z,5.40
2022-08-14T09:03:20.474Z,5.35
2022-08-14T09:05:54.516Z,5.30
2022-08-14T09:08:31.917Z,5.57
2022-08-14T09:10:56.495Z,5.93
2022-08-14T09:13:19.396Z,5.70
2022-08-14T09:15:43.645Z,5.80
2022-08-14T09:18:06.086Z,5.70
2022-08-14T09:20:30.659Z,5.72
2022-08-14T09:22:53.732Z,6.03
2022-08-14T09:25:19.703Z,6.28
2022-08-14T09:27:41.522Z,6.13
2022-08-14T09:30:12.688Z,5.90
2022-08-14T09:33:22.484Z,5.88
2022-08-14T09:36:05.972Z,6.13
2022-08-14T09:38:58.854Z,6.00
2022-08-14T09:42:21.075Z,5.90
2022-08-14T09:44:54.437Z,6.30
2022-08-14T09:47:17.264Z,5.97
2022-08-14T09:49:39.969Z,5.53
2022-08-14T09:52:33.455Z,6.10
2022-08-14T09:54:52.395Z,6.40
2022-08-14T09:57:28.937Z,5.38
2022-08-14T09:59:51.065Z,5.72
2022-08-14T10:02:21.802Z,5.95
2022-08-14T10:04:46.349Z,5.50
2022-08-14T10:07:12.404Z,5.88
2022-08-14T10:09:35.152Z,5.75
2022-08-14T10:11:59.747Z,5.22
2022-08-14T10:14:35.172Z,5.32
2022-08-14T10:16:58.540Z,5.80
2022-08-14T10:19:24.149Z,5.05
2022-08-14T10:23:15.552Z,5.28
2022-08-14T10:24:50.998Z,5.00
2022-08-14T10:27:25.033Z,5.03
2022-08-14T10:29:50.936Z,4.90
2022-08-14T10:32:17.852Z,4.53
2022-08-14T10:34:41.052Z,4.80
2022-08-14T10:37:14.258Z,5.05
2022-08-14T10:39:38.572Z,4.97
2022-08-14T10:42:18.341Z,5.15
2022-08-14T10:44:52.600Z,4.50
2022-08-14T10:47:40.819Z,5.20
2022-08-14T10:49:59.946Z,4.78
2022-08-14T10:52:25.544Z,5.18
2022-08-14T10:54:48.345Z,4.85
2022-08-14T10:57:21.821Z,4.80
2022-08-14T10:59:56.006Z,5.07
2022-08-14T11:02:54.350Z,4.90
2022-08-14T11:05:18.696Z,4.95
2022-08-14T11:07:55.312Z,4.40
2022-08-14T11:10:17.797Z,4.68
2022-08-14T11:12:49.754Z,4.90
2022-08-14T11:15:11.254Z,4.88
2022-08-14T11:17:36.188Z,4.80
2022-08-14T11:20:00.138Z,5.18
2022-08-14T11:22:56.232Z,4.68
2022-08-14T11:25:06.743Z,4.57
2022-08-14T11:27:33.380Z,4.97
2022-08-14T11:30:49.217Z,4.50
2022-08-14T11:32:48.734Z,5.13
2022-08-14T11:35:18.210Z,4.70
2022-08-14T11:37:49.643Z,5.30
2022-08-14T11:40:20.015Z,4.93
2022-08-14T11:42:59.457Z,4.80
2022-08-14T11:45:26.704Z,5.20
2022-08-14T11:48:12.779Z,5.47
2022-08-14T11:50:38.361Z,4.43
2022-08-14T11:53:04.304Z,4.60
2022-08-14T11:55:27.148Z,4.93
2022-08-14T11:58:03.417Z,5.32
2022-08-14T12:00:32.137Z,5.10
2022-08-14T12:03:04.043Z,5.03
2022-08-14T12:05:30.978Z,4.82
2022-08-14T12:07:54.920Z,5.43
2022-08-14T12:10:26.233Z,5.00
2022-08-14T12:12:50.283Z,5.13
2022-08-14T12:15:12.617Z,5.47
2022-08-14T12:17:47.568Z,5.32
2022-08-14T12:20:11.641Z,5.53
2022-08-14T12:22:40.115Z,5.45
2022-08-14T12:25:10.965Z,4.97
2022-08-14T12:27:51.920Z,5.40
2022-08-14T12:30:39.449Z,5.28
2022-08-14T12:33:04.234Z,4.75
2022-08-14T12:35:43.301Z,5.28
2022-08-14T12:38:04.794Z,5.18
2022-08-14T12:40:28.848Z,5.15
2022-08-14T12:42:56.627Z,5.90
2022-08-14T12:45:20.440Z,5.60
2022-08-14T12:47:43.730Z,5.90
2022-08-14T12:50:13.196Z,6.10
2022-08-14T12:52:54.165Z,5.85
2022-08-14T12:55:32.528Z,5.35
2022-08-14T12:58:35.432Z,5.55
2022-08-14T13:01:16.343Z,5.93
2022-08-14T13:03:33.869Z,5.30
2022-08-14T13:05:56.439Z,5.30
2022-08-14T13:08:34.086Z,5.25
2022-08-14T13:10:58.094Z,5.57
2022-08-14T13:13:28.892Z,5.15
2022-08-14T13:15:56.128Z,5.72
2022-08-14T13:18:22.709Z,6.03
2022-08-14T13:20:49.790Z,5.30
2022-08-14T13:23:30.520Z,5.20
2022-08-14T13:25:55.925Z,5.68
2022-08-14T13:28:32.611Z,5.45
2022-08-14T13:30:57.029Z,5.53
2022-08-14T13:33:21.644Z,5.65
2022-08-14T13:35:47.540Z,5.80
2022-08-14T13:38:13.388Z,5.90
2022-08-14T13:40:35.398Z,5.35
2022-08-14T13:43:02.617Z,5.10
2022-08-14T13:45:33.659Z,5.40
2022-08-14T13:48:07.940Z,6.50
2022-08-14T13:50:45.582Z,5.40
2022-08-14T13:53:09.797Z,5.07
2022-08-14T13:55:32.354Z,5.18
2022-08-14T13:58:03.318Z,5.97
2022-08-14T14:00:32.539Z,5.65
2022-08-14T14:02:58.623Z,5.93
2022-08-14T14:05:21.075Z,5.70
2022-08-14T14:07:47.384Z,6.00
2022-08-14T14:10:16.950Z,6.00
2022-08-14T14:12:41.451Z,5.65
2022-08-14T14:15:09.595Z,5.30
2022-08-14T14:17:31.580Z,6.20
2022-08-14T14:19:54.173Z,5.90
2022-08-14T14:22:45.406Z,5.68
2022-08-14T14:24:57.577Z,5.68
2022-08-14T14:30:03.333Z,5.80
2022-08-14T14:32:52.666Z,5.80
2022-08-14T14:35:30.074Z,5.95
2022-08-14T14:37:56.291Z,5.30
2022-08-14T14:40:53.838Z,6.13
2022-08-14T14:43:03.879Z,5.97
2022-08-14T14:45:27.733Z,5.90
2022-08-14T14:47:59.320Z,6.10
2022-08-14T14:50:24.725Z,5.95
2022-08-14T14:52:49.590Z,5.80
2022-08-14T14:55:19.074Z,6.22
2022-08-14T14:57:44.578Z,5.82
2022-08-14T15:00:19.463Z,6.10
2022-08-14T15:02:44.233Z,6.10
2022-08-14T15:05:08.148Z,5.50
2022-08-14T15:07:30.018Z,5.60
2022-08-14T15:09:53.976Z,5.47
2022-08-14T15:12:27.878Z,6.07
2022-08-14T15:15:08.049Z,5.93
2022-08-14T15:17:40.845Z,5.72
2022-08-14T15:20:30.632Z,5.60
2022-08-14T15:22:52.845Z,6.15
2022-08-14T15:25:18.580Z,5.65
2022-08-14T15:27:44.187Z,5.88
2022-08-14T15:30:07.605Z,6.15
2022-08-14T15:32:29.509Z,6.05
2022-08-14T15:34:53.026Z,6.18
2022-08-14T15:37:16.596Z,5.82
2022-08-14T15:39:38.708Z,5.95
2022-08-14T15:42:09.321Z,5.93
2022-08-14T15:44:46.594Z,6.28
2022-08-14T15:47:28.429Z,5.90
2022-08-14T15:49:53.980Z,5.90
2022-08-14T15:52:32.527Z,6.03
2022-08-14T15:54:57.682Z,6.05
2022-08-14T15:57:21.167Z,5.15
2022-08-14T16:00:01.408Z,6.15
2022-08-14T16:02:27.574Z,5.80
2022-08-14T16:04:50.559Z,6.18
2022-08-14T16:07:13.325Z,6.10
2022-08-14T16:09:36.335Z,6.18
2022-08-14T16:11:57.843Z,5.80
2022-08-14T16:14:20.449Z,5.93
2022-08-14T16:16:49.915Z,5.90
2022-08-14T16:19:18.454Z,6.00
2022-08-14T16:22:01.192Z,5.00
2022-08-14T16:24:28.288Z,5.97
2022-08-14T16:26:51.748Z,6.38
2022-08-14T16:29:16.557Z,6.25
2022-08-14T16:31:43.025Z,5.80
2022-08-14T16:34:22.892Z,6.18
2022-08-14T16:36:51.012Z,5.53
2022-08-14T16:39:12.779Z,5.65
2022-08-14T16:41:36.189Z,6.13
2022-08-14T16:44:13.808Z,6.18
2022-08-14T16:46:45.622Z,5.70
2022-08-14T16:49:10.308Z,5.75
2022-08-14T16:51:36.307Z,6.07
2022-08-14T16:54:01.623Z,5.72
2022-08-14T16:56:25.619Z,5.70
2022-08-14T16:59:16.407Z,5.93
2022-08-14T17:01:40.540Z,5.90
2022-08-14T17:04:09.153Z,5.47
2022-08-14T17:06:42.975Z,6.15
2022-08-14T17:09:22.156Z,5.75
2022-08-14T17:11:54.564Z,5.60
2022-08-14T17:14:17.434Z,5.93
2022-08-14T17:16:41.560Z,5.85
2022-08-14T17:19:04.813Z,5.90
2022-08-14T17:21:31.316Z,5.53
2022-08-14T17:23:57.749Z,6.03
2022-08-14T17:26:43.522Z,5.60
2022-08-14T17:29:09.917Z,5.82
2022-08-14T17:31:57.753Z,6.18
2022-08-14T17:34:18.184Z,6.32
2022-08-14T17:36:42.205Z,6.00
2022-08-14T17:39:13.644Z,6.28
2022-08-14T17:41:43.863Z,6.22
2022-08-14T17:44:33.735Z,6.00
2022-08-14T17:47:08.201Z,6.10
2022-08-14T17:49:47.217Z,6.15
2022-08-14T17:52:34.752Z,6.28
2022-08-14T17:55:00.522Z,6.40
2022-08-14T17:57:25.956Z,6.38
2022-08-14T17:59:51.483Z,6.32
2022-08-14T18:02:16.623Z,6.03
2022-08-14T18:04:41.162Z,5.88
2022-08-14T18:07:16.852Z,6.70
2022-08-14T18:09:56.703Z,6.57
2022-08-14T18:12:31.826Z,6.15
2022-08-14T18:14:54.079Z,6.00
2022-08-14T18:17:16.361Z,5.90
2022-08-14T18:19:41.654Z,6.30
2022-08-14T18:22:32.915Z,6.53
2022-08-14T18:24:49.700Z,6.85
2022-08-14T18:27:14.873Z,6.85
2022-08-14T18:29:43.946Z,6.22
2022-08-14T18:32:31.364Z,6.55
2022-08-14T18:34:59.907Z,6.38
2022-08-14T18:37:21.628Z,6.80
2022-08-14T18:40:02.307Z,6.75
2022-08-14T18:42:30.484Z,7.85
2022-08-14T18:44:58.606Z,7.55
2022-08-14T18:47:25.608Z,7.13
2022-08-14T18:49:57.420Z,6.85
2022-08-14T18:52:41.688Z,7.05
2022-08-14T18:55:15.777Z,6.75
2022-08-14T18:57:58.572Z,6.38
2022-08-14T19:00:32.883Z,7.10
2022-08-14T19:02:55.804Z,6.25
2022-08-14T19:05:37.827Z,7.30
2022-08-14T19:08:22.059Z,6.93
2022-08-14T19:10:51.321Z,6.75
2022-08-14T19:13:20.418Z,6.72
2022-08-14T19:15:56.095Z,6.90
2022-08-14T19:18:26.415Z,7.18
2022-08-14T19:21:00.528Z,6.80
2022-08-14T19:23:43.186Z,6.80
2022-08-14T19:26:37.006Z,6.55
2022-08-14T19:29:20.079Z,7.38
2022-08-14T19:31:55.104Z,7.18
2022-08-14T19:34:52.589Z,7.15
2022-08-14T19:37:46.043Z,7.47
2022-08-14T19:40:15.083Z,7.78
2022-08-14T19:42:46.503Z,7.68
2022-08-14T19:45:14.590Z,7.57
2022-08-14T19:47:41.166Z,7.20
2022-08-14T19:50:08.373Z,7.35
2022-08-14T19:52:46.126Z,7.18
2022-08-14T19:55:19.878Z,7.50
2022-08-14T19:57:41.885Z,7.57
2022-08-14T20:00:27.951Z,7.40
2022-08-14T20:03:10.740Z,7.10
2022-08-14T20:05:39.944Z,7.30
2022-08-14T20:08:07.663Z,7.43
2022-08-14T20:11:04.708Z,7.07
2022-08-14T20:13:32.511Z,7.72
2022-08-14T20:15:54.523Z,7.47
2022-08-14T20:18:48.758Z,7.65
2022-08-14T20:21:07.474Z,7.20
2022-08-14T20:23:38.147Z,7.00
2022-08-14T20:26:00.575Z,6.65
2022-08-14T20:28:32.018Z,7.68
2022-08-14T20:31:15.685Z,7.70
2022-08-14T20:33:47.785Z,7.50
2022-08-14T20:36:16.211Z,7.18
2022-08-14T20:38:55.393Z,7.80
2022-08-14T20:41:20.079Z,7.35
2022-08-14T20:44:06.738Z,7.22
2022-08-14T20:46:39.010Z,8.02
2022-08-14T20:49:18.794Z,7.82
2022-08-14T20:51:58.719Z,7.60
2022-08-14T20:54:34.693Z,7.90
2022-08-14T20:57:18.830Z,8.68
2022-08-14T20:59:47.055Z,8.77
2022-08-14T21:02:30.393Z,8.38
2022-08-14T21:05:00.577Z,8.50
2022-08-14T21:07:36.061Z,8.57
2022-08-14T21:10:36.160Z,8.35
2022-08-14T21:13:26.552Z,8.85
2022-08-14T21:15:40.856Z,8.40
2022-08-14T21:18:02.407Z,8.48
2022-08-14T21:20:26.761Z,8.40
2022-08-14T21:22:50.647Z,8.20
2022-08-14T21:25:13.238Z,8.48
2022-08-14T21:27:37.421Z,8.18
2022-08-14T21:29:59.771Z,7.60
2022-08-14T21:32:47.063Z,8.13
2022-08-14T21:35:13.503Z,8.50
2022-08-14T21:37:47.443Z,8.23
2022-08-14T21:40:40.833Z,7.65
2022-08-14T21:42:52.323Z,8.55
2022-08-14T21:45:14.690Z,7.90
2022-08-14T21:47:36.428Z,7.60
2022-08-14T21:49:58.297Z,8.30
2022-08-14T21:52:52.077Z,8.20
2022-08-14T21:55:09.826Z,7.70
2022-08-14T21:58:45.916Z,8.40
2022-08-14T22:00:30.563Z,7.90
2022-08-14T22:02:57.607Z,8.00
2022-08-14T22:05:22.151Z,8.38
2022-08-14T22:07:44.550Z,8.13
2022-08-14T22:10:09.839Z,8.30
2022-08-14T22:12:58.793Z,8.32
2022-08-14T22:15:17.920Z,8.27
2022-08-14T22:17:40.392Z,8.18
2022-08-14T22:20:12.248Z,8.57
2022-08-14T22:22:40.324Z,8.05
2022-08-14T22:25:04.978Z,8.05
2022-08-14T22:27:26.666Z,8.50
2022-08-14T22:29:54.852Z,8.32
2022-08-14T22:32:19.795Z,7.75
2022-08-14T22:34:48.590Z,8.38
2022-08-14T22:37:10.404Z,8.52
2022-08-14T22:40:54.604Z,8.23
2022-08-14T22:42:21.095Z,7.72
2022-08-14T22:44:44.384Z,9.20
2022-08-14T22:47:07.355Z,8.80
2022-08-14T22:50:31.239Z,8.48
2022-08-14T22:52:31.648Z,7.93
2022-08-14T22:54:54.077Z,7.85
2022-08-14T22:57:15.711Z,8.07
2022-08-14T22:59:38.953Z,8.32
2022-08-14T23:02:04.106Z,8.85
2022-08-14T23:04:34.950Z,8.82
2022-08-14T23:07:07.445Z,8.38
2022-08-14T23:09:38.172Z,7.85
2022-08-14T23:12:02.006Z,8.52
2022-08-14T23:14:26.822Z,8.77
2022-08-14T23:16:57.285Z,9.10
2022-08-14T23:19:20.571Z,8.68
2022-08-14T23:21:46.189Z,8.55
2022-08-14T23:24:09.367Z,8.07
2022-08-14T23:26:48.811Z,8.98
2022-08-14T23:29:13.467Z,9.07
2022-08-14T23:31:39.378Z,8.32
2022-08-14T23:34:01.899Z,7.95
2022-08-14T23:36:36.958Z,8.55
2022-08-14T23:39:18.978Z,8.27
2022-08-14T23:41:46.576Z,8.60
2022-08-14T23:44:15.014Z,9.02
2022-08-14T23:46:36.476Z,8.57
2022-08-14T23:49:01.253Z,9.10
2022-08-14T23:51:23.403Z,8.50
2022-08-14T23:53:51.435Z,8.77
2022-08-14T23:56:20.341Z,8.57
2022-08-14T23:58:54.769Z,8.57
